createdAt,value
2017-06-27T00:00:17.680Z,0
2017-06-27T00:01:17.974Z,0
2017-06-27T00:02:17.961Z,0
2017-06-27T00:03:17.992Z,0
2017-06-27T00:04:17.615Z,0
2017-06-27T00:05:18.234Z,0
2017-06-27T00:06:17.598Z,0
2017-06-27T00:07:17.275Z,0
2017-06-27T00:08:18.195Z,0
2017-06-27T00:09:17.561Z,0
2017-06-27T00:10:17.233Z,0
2017-06-27T00:11:17.852Z,0
2017-06-27T00:12:17.838Z,0
2017-06-27T00:13:17.822Z,0
2017-06-27T00:14:17.535Z,0
2017-06-27T00:15:17.490Z,0
2017-06-27T00:16:17.793Z,0
2017-06-27T00:17:17.463Z,0
2017-06-27T00:18:17.770Z,0
2017-06-27T00:19:17.451Z,0
2017-06-27T00:20:17.438Z,0
2017-06-27T00:21:17.113Z,0
2017-06-27T00:22:17.724Z,0
2017-06-27T00:23:17.086Z,0
2017-06-27T00:24:17.705Z,0
2017-06-27T00:25:17.686Z,0
2017-06-27T00:26:17.673Z,0
2017-06-27T00:27:17.031Z,0
2017-06-27T00:28:17.345Z,0
2017-06-27T00:29:17.634Z,0
2017-06-27T00:30:17.310Z,0
2017-06-27T00:31:17.617Z,0
2017-06-27T00:32:17.599Z,0
2017-06-27T00:33:16.973Z,0
2017-06-27T00:34:17.262Z,0
2017-06-27T00:35:16.936Z,0
2017-06-27T00:36:17.240Z,0
2017-06-27T00:37:17.230Z,0
2017-06-27T00:38:17.531Z,0
2017-06-27T00:39:17.523Z,0
2017-06-27T00:40:17.505Z,0
2017-06-27T00:41:17.215Z,0
2017-06-27T00:42:17.172Z,0
2017-06-27T00:43:17.783Z,0
2017-06-27T00:44:17.187Z,0
2017-06-27T00:45:17.755Z,0
2017-06-27T00:46:16.804Z,0
2017-06-27T00:47:17.121Z,0
2017-06-27T00:48:17.404Z,0
2017-06-27T00:49:17.086Z,0
2017-06-27T00:50:17.075Z,0
2017-06-27T00:51:16.744Z,0
2017-06-27T00:52:17.406Z,0
2017-06-27T00:53:17.664Z,0
2017-06-27T00:54:17.332Z,0
2017-06-27T00:55:17.063Z,0
2017-06-27T00:56:17.302Z,0
2017-06-27T00:57:16.984Z,0
2017-06-27T00:58:17.593Z,0
2017-06-27T00:59:17.276Z,0
2017-06-27T01:00:16.946Z,0
2017-06-27T01:01:16.939Z,0
2017-06-27T01:02:17.553Z,0
2017-06-27T01:03:16.599Z,0
2017-06-27T01:04:16.902Z,0
2017-06-27T01:05:16.575Z,0
2017-06-27T01:06:17.193Z,0
2017-06-27T01:07:17.491Z,0
2017-06-27T01:08:17.196Z,0
2017-06-27T01:09:17.150Z,0
2017-06-27T01:10:17.458Z,0
2017-06-27T01:11:17.174Z,0
2017-06-27T01:12:16.490Z,0
2017-06-27T01:13:17.103Z,0
2017-06-27T01:14:16.775Z,0
2017-06-27T01:15:17.111Z,0
2017-06-27T01:16:17.376Z,0
2017-06-27T01:17:16.736Z,0
2017-06-27T01:18:16.728Z,0
2017-06-27T01:19:17.032Z,0
2017-06-27T01:20:16.713Z,0
2017-06-27T01:21:16.695Z,0
2017-06-27T01:22:17.306Z,0
2017-06-27T01:23:16.810Z,0
2017-06-27T01:24:16.663Z,0
2017-06-27T01:25:16.954Z,0
2017-06-27T01:26:16.633Z,0
2017-06-27T01:27:16.934Z,0
2017-06-27T01:28:17.229Z,0
2017-06-27T01:29:17.228Z,0
2017-06-27T01:30:16.283Z,0
2017-06-27T01:31:16.570Z,0
2017-06-27T01:32:17.187Z,0
2017-06-27T01:33:16.865Z,0
2017-06-27T01:34:16.534Z,0
2017-06-27T01:35:16.534Z,0
2017-06-27T01:36:15.888Z,0
2017-06-27T01:37:16.500Z,0
2017-06-27T01:38:16.486Z,0
2017-06-27T01:39:16.784Z,0
2017-06-27T01:40:17.084Z,0
2017-06-27T01:41:17.289Z,0
2017-06-27T01:42:16.754Z,0
2017-06-27T01:43:16.117Z,0
2017-06-27T01:44:17.038Z,0
2017-06-27T01:45:16.088Z,0
2017-06-27T01:46:16.699Z,0
2017-06-27T01:47:16.067Z,0
2017-06-27T01:48:16.362Z,0
2017-06-27T01:49:16.349Z,0
2017-06-27T01:50:16.654Z,0
2017-06-27T01:51:16.330Z,0
2017-06-27T01:52:16.629Z,0
2017-06-27T01:53:16.625Z,0
2017-06-27T01:54:16.602Z,0
2017-06-27T01:55:16.276Z,0
2017-06-27T01:56:15.956Z,0
2017-06-27T01:57:16.881Z,0
2017-06-27T01:58:16.915Z,0
2017-06-27T01:59:15.916Z,0
2017-06-27T02:00:16.844Z,0
2017-06-27T02:01:16.517Z,0
2017-06-27T02:02:16.189Z,0
2017-06-27T02:03:16.493Z,0
2017-06-27T02:04:15.855Z,0
2017-06-27T02:05:15.848Z,0
2017-06-27T02:06:16.452Z,0
2017-06-27T02:07:15.838Z,0
2017-06-27T02:08:16.434Z,0
2017-06-27T02:09:16.102Z,0
2017-06-27T02:10:16.099Z,0
2017-06-27T02:11:16.705Z,0
2017-06-27T02:12:16.076Z,0
2017-06-27T02:13:16.375Z,0
2017-06-27T02:14:16.367Z,0
2017-06-27T02:15:16.132Z,0
2017-06-27T02:16:15.764Z,0
2017-06-27T02:17:16.006Z,0
2017-06-27T02:18:15.689Z,0
2017-06-27T02:19:16.291Z,0
2017-06-27T02:20:16.597Z,0
2017-06-27T02:21:15.956Z,0
2017-06-27T02:22:16.261Z,0
2017-06-27T02:23:15.936Z,0
2017-06-27T02:24:15.297Z,0
2017-06-27T02:25:16.223Z,0
2017-06-27T02:26:15.590Z,0
2017-06-27T02:27:16.199Z,0
2017-06-27T02:28:15.873Z,0
2017-06-27T02:29:16.486Z,0
2017-06-27T02:30:16.163Z,0
2017-06-27T02:31:16.146Z,0
2017-06-27T02:32:15.821Z,0
2017-06-27T02:33:16.438Z,0
2017-06-27T02:34:16.111Z,0
2017-06-27T02:35:15.989Z,0
2017-06-27T02:36:16.079Z,0
2017-06-27T02:37:15.761Z,0
2017-06-27T02:38:16.372Z,0
2017-06-27T02:39:16.049Z,0
2017-06-27T02:40:15.736Z,0
2017-06-27T02:41:16.018Z,0
2017-06-27T02:42:16.013Z,0
2017-06-27T02:43:15.691Z,0
2017-06-27T02:44:15.991Z,0
2017-06-27T02:45:15.662Z,0
2017-06-27T02:46:15.651Z,0
2017-06-27T02:47:16.259Z,0
2017-06-27T02:48:15.936Z,0
2017-06-27T02:49:15.612Z,0
2017-06-27T02:50:15.915Z,0
2017-06-27T02:51:15.893Z,0
2017-06-27T02:52:15.259Z,0
2017-06-27T02:53:15.868Z,0
2017-06-27T02:54:15.868Z,0
2017-06-27T02:55:15.226Z,0
2017-06-27T02:56:15.838Z,0
2017-06-27T02:57:15.819Z,0
2017-06-27T02:58:15.495Z,0
2017-06-27T02:59:16.104Z,0
2017-06-27T03:00:15.471Z,0
2017-06-27T03:01:15.777Z,0
2017-06-27T03:02:16.081Z,0
2017-06-27T03:03:16.058Z,0
2017-06-27T03:04:16.048Z,0
2017-06-27T03:05:15.408Z,0
2017-06-27T03:06:15.078Z,0
2017-06-27T03:07:15.696Z,0
2017-06-27T03:08:15.376Z,0
2017-06-27T03:09:15.673Z,0
2017-06-27T03:10:15.664Z,5
2017-06-27T03:11:15.330Z,5
2017-06-27T03:12:15.678Z,5
2017-06-27T03:13:15.613Z,5
2017-06-27T03:14:15.293Z,5
2017-06-27T03:15:14.968Z,5
2017-06-27T03:16:15.584Z,5
2017-06-27T03:17:14.945Z,5
2017-06-27T03:18:15.548Z,5
2017-06-27T03:19:14.920Z,5
2017-06-27T03:20:15.530Z,5
2017-06-27T03:21:15.202Z,5
2017-06-27T03:22:15.191Z,5
2017-06-27T03:23:15.814Z,5
2017-06-27T03:24:15.165Z,5
2017-06-27T03:25:15.473Z,5
2017-06-27T03:26:15.766Z,5
2017-06-27T03:27:15.441Z,10
2017-06-27T03:28:15.741Z,10
2017-06-27T03:29:15.411Z,10
2017-06-27T03:30:15.089Z,10
2017-06-27T03:31:15.389Z,10
2017-06-27T03:32:15.378Z,10
2017-06-27T03:33:15.086Z,10
2017-06-27T03:34:15.352Z,10
2017-06-27T03:35:15.022Z,10
2017-06-27T03:36:15.329Z,10
2017-06-27T03:37:15.310Z,10
2017-06-27T03:38:14.986Z,15
2017-06-27T03:39:14.971Z,15
2017-06-27T03:40:14.996Z,15
2017-06-27T03:41:15.865Z,15
2017-06-27T03:42:15.554Z,15
2017-06-27T03:43:14.986Z,15
2017-06-27T03:44:15.226Z,20
2017-06-27T03:45:14.588Z,20
2017-06-27T03:46:14.881Z,20
2017-06-27T03:47:15.192Z,20
2017-06-27T03:48:14.858Z,20
2017-06-27T03:49:15.471Z,20
2017-06-27T03:50:15.142Z,20
2017-06-27T03:51:15.452Z,20
2017-06-27T03:52:14.228Z,20
2017-06-27T03:53:15.415Z,25
2017-06-27T03:54:14.781Z,25
2017-06-27T03:55:14.766Z,25
2017-06-27T03:56:14.752Z,25
2017-06-27T03:57:15.058Z,25
2017-06-27T03:58:14.726Z,25
2017-06-27T03:59:15.033Z,25
2017-06-27T04:00:14.390Z,25
2017-06-27T04:01:15.001Z,25
2017-06-27T04:02:14.369Z,25
2017-06-27T04:03:14.984Z,25
2017-06-27T04:04:14.965Z,30
2017-06-27T04:05:14.643Z,30
2017-06-27T04:06:14.633Z,30
2017-06-27T04:07:14.615Z,30
2017-06-27T04:08:14.920Z,30
2017-06-27T04:09:14.898Z,30
2017-06-27T04:10:14.577Z,30
2017-06-27T04:11:14.884Z,35
2017-06-27T04:12:14.558Z,35
2017-06-27T04:13:14.234Z,35
2017-06-27T04:14:14.526Z,35
2017-06-27T04:15:15.143Z,35
2017-06-27T04:16:14.815Z,35
2017-06-27T04:17:14.180Z,35
2017-06-27T04:18:14.805Z,35
2017-06-27T04:19:14.484Z,40
2017-06-27T04:20:15.127Z,40
2017-06-27T04:21:14.757Z,40
2017-06-27T04:22:14.433Z,40
2017-06-27T04:23:14.735Z,40
2017-06-27T04:24:14.099Z,40
2017-06-27T04:25:14.085Z,45
2017-06-27T04:26:14.382Z,45
2017-06-27T04:27:14.734Z,45
2017-06-27T04:28:14.046Z,45
2017-06-27T04:29:15.035Z,45
2017-06-27T04:30:14.355Z,45
2017-06-27T04:31:13.744Z,45
2017-06-27T04:32:14.935Z,45
2017-06-27T04:33:14.933Z,45
2017-06-27T04:34:14.598Z,45
2017-06-27T04:35:14.592Z,45
2017-06-27T04:36:14.264Z,45
2017-06-27T04:37:14.292Z,45
2017-06-27T04:38:14.238Z,50
2017-06-27T04:39:14.846Z,50
2017-06-27T04:40:14.205Z,50
2017-06-27T04:41:14.508Z,55
2017-06-27T04:42:14.497Z,55
2017-06-27T04:43:14.171Z,60
2017-06-27T04:44:14.471Z,60
2017-06-27T04:45:14.151Z,60
2017-06-27T04:46:14.449Z,60
2017-06-27T04:47:13.819Z,65
2017-06-27T04:48:14.442Z,65
2017-06-27T04:49:14.407Z,65
2017-06-27T04:50:14.087Z,70
2017-06-27T04:51:14.425Z,70
2017-06-27T04:52:14.375Z,70
2017-06-27T04:53:14.049Z,75
2017-06-27T04:54:14.041Z,75
2017-06-27T04:55:14.029Z,75
2017-06-27T04:56:14.329Z,80
2017-06-27T04:57:14.313Z,80
2017-06-27T04:58:14.618Z,80
2017-06-27T04:59:14.294Z,80
2017-06-27T05:00:13.968Z,80
2017-06-27T05:01:14.272Z,80
2017-06-27T05:02:13.942Z,80
2017-06-27T05:03:14.553Z,80
2017-06-27T05:04:13.916Z,80
2017-06-27T05:05:14.225Z,75
2017-06-27T05:06:14.208Z,75
2017-06-27T05:07:13.880Z,75
2017-06-27T05:08:14.185Z,75
2017-06-27T05:09:14.173Z,75
2017-06-27T05:10:14.192Z,75
2017-06-27T05:11:13.520Z,75
2017-06-27T05:12:13.824Z,75
2017-06-27T05:13:13.834Z,75
2017-06-27T05:14:13.804Z,80
2017-06-27T05:15:14.102Z,80
2017-06-27T05:16:13.791Z,80
2017-06-27T05:17:13.771Z,80
2017-06-27T05:18:13.443Z,80
2017-06-27T05:19:13.425Z,80
2017-06-27T05:20:13.734Z,80
2017-06-27T05:21:14.038Z,80
2017-06-27T05:22:14.056Z,80
2017-06-27T05:23:13.704Z,80
2017-06-27T05:24:14.313Z,80
2017-06-27T05:25:13.985Z,85
2017-06-27T05:26:13.412Z,85
2017-06-27T05:27:14.273Z,90
2017-06-27T05:28:13.953Z,95
2017-06-27T05:29:13.625Z,90
2017-06-27T05:30:14.241Z,95
2017-06-27T05:31:13.293Z,95
2017-06-27T05:32:14.216Z,100
2017-06-27T05:33:13.580Z,100
2017-06-27T05:34:13.885Z,105
2017-06-27T05:35:14.187Z,105
2017-06-27T05:36:13.864Z,105
2017-06-27T05:37:13.848Z,105
2017-06-27T05:38:13.841Z,105
2017-06-27T05:39:13.833Z,105
2017-06-27T05:40:13.503Z,110
2017-06-27T05:41:14.519Z,105
2017-06-27T05:42:14.115Z,105
2017-06-27T05:43:13.159Z,105
2017-06-27T05:44:14.118Z,110
2017-06-27T05:45:13.449Z,110
2017-06-27T05:46:13.751Z,115
2017-06-27T05:47:13.433Z,120
2017-06-27T05:48:13.410Z,120
2017-06-27T05:49:13.718Z,125
2017-06-27T05:50:13.392Z,125
2017-06-27T05:51:13.100Z,120
2017-06-27T05:52:14.016Z,120
2017-06-27T05:53:13.681Z,120
2017-06-27T05:54:13.347Z,120
2017-06-27T05:55:13.342Z,125
2017-06-27T05:56:13.324Z,125
2017-06-27T05:57:13.945Z,130
2017-06-27T05:58:12.994Z,130
2017-06-27T05:59:13.641Z,135
2017-06-27T06:00:13.611Z,135
2017-06-27T06:01:13.589Z,135
2017-06-27T06:02:13.260Z,140
2017-06-27T06:03:13.261Z,145
2017-06-27T06:04:13.247Z,150
2017-06-27T06:05:13.542Z,150
2017-06-27T06:06:12.915Z,150
2017-06-27T06:07:13.214Z,145
2017-06-27T06:08:13.824Z,145
2017-06-27T06:09:13.190Z,145
2017-06-27T06:10:13.182Z,145
2017-06-27T06:11:13.485Z,145
2017-06-27T06:12:13.169Z,145
2017-06-27T06:13:13.147Z,145
2017-06-27T06:14:13.135Z,145
2017-06-27T06:15:12.833Z,145
2017-06-27T06:16:13.428Z,140
2017-06-27T06:17:13.108Z,135
2017-06-27T06:18:13.103Z,150
2017-06-27T06:19:12.778Z,190
2017-06-27T06:20:12.760Z,150
2017-06-27T06:21:13.690Z,155
2017-06-27T06:22:12.770Z,220
2017-06-27T06:23:13.415Z,145
2017-06-27T06:24:12.725Z,145
2017-06-27T06:25:12.715Z,150
2017-06-27T06:26:13.013Z,155
2017-06-27T06:27:13.639Z,160
2017-06-27T06:28:13.339Z,160
2017-06-27T06:29:13.303Z,160
2017-06-27T06:30:12.984Z,160
2017-06-27T06:31:12.659Z,160
2017-06-27T06:32:12.957Z,160
2017-06-27T06:33:12.949Z,160
2017-06-27T06:34:12.626Z,160
2017-06-27T06:35:12.949Z,160
2017-06-27T06:36:13.238Z,160
2017-06-27T06:37:13.219Z,160
2017-06-27T06:38:13.208Z,160
2017-06-27T06:39:12.573Z,165
2017-06-27T06:40:12.885Z,165
2017-06-27T06:41:12.293Z,165
2017-06-27T06:42:12.545Z,165
2017-06-27T06:43:13.479Z,165
2017-06-27T06:44:13.157Z,170
2017-06-27T06:45:13.137Z,175
2017-06-27T06:46:13.449Z,190
2017-06-27T06:47:12.807Z,205
2017-06-27T06:48:13.112Z,190
2017-06-27T06:49:13.106Z,200
2017-06-27T06:50:12.780Z,195
2017-06-27T06:51:13.415Z,190
2017-06-27T06:52:13.076Z,185
2017-06-27T06:53:12.751Z,180
2017-06-27T06:54:13.371Z,185
2017-06-27T06:55:13.375Z,180
2017-06-27T06:56:13.350Z,180
2017-06-27T06:57:13.343Z,180
2017-06-27T06:58:13.323Z,180
2017-06-27T06:59:13.049Z,180
2017-06-27T07:00:12.689Z,185
2017-06-27T07:01:12.992Z,185
2017-06-27T07:02:12.981Z,190
2017-06-27T07:03:12.982Z,190
2017-06-27T07:04:12.965Z,195
2017-06-27T07:05:12.332Z,195
2017-06-27T07:06:12.947Z,195
2017-06-27T07:07:13.322Z,200
2017-06-27T07:08:12.929Z,205
2017-06-27T07:09:12.612Z,205
2017-06-27T07:10:12.647Z,210
2017-06-27T07:11:12.583Z,215
2017-06-27T07:12:12.609Z,215
2017-06-27T07:13:13.195Z,215
2017-06-27T07:14:12.874Z,215
2017-06-27T07:15:12.541Z,215
2017-06-27T07:16:12.858Z,220
2017-06-27T07:17:13.162Z,230
2017-06-27T07:18:12.840Z,225
2017-06-27T07:19:12.825Z,230
2017-06-27T07:20:12.824Z,240
2017-06-27T07:21:12.502Z,280
2017-06-27T07:22:12.177Z,260
2017-06-27T07:23:12.482Z,240
2017-06-27T07:24:13.095Z,255
2017-06-27T07:25:12.772Z,340
2017-06-27T07:26:11.837Z,270
2017-06-27T07:27:13.072Z,245
2017-06-27T07:28:12.755Z,250
2017-06-27T07:29:12.427Z,240
2017-06-27T07:30:12.424Z,250
2017-06-27T07:31:12.731Z,255
2017-06-27T07:32:12.406Z,255
2017-06-27T07:33:12.401Z,260
2017-06-27T07:34:12.713Z,265
2017-06-27T07:35:12.380Z,275
2017-06-27T07:36:12.683Z,295
2017-06-27T07:37:12.363Z,320
2017-06-27T07:38:12.667Z,295
2017-06-27T07:39:12.663Z,290
2017-06-27T07:40:12.649Z,345
2017-06-27T07:41:12.015Z,340
2017-06-27T07:42:12.947Z,345
2017-06-27T07:43:12.320Z,325
2017-06-27T07:44:12.621Z,375
2017-06-27T07:45:12.301Z,380
2017-06-27T07:46:12.608Z,330
2017-06-27T07:47:12.285Z,380
2017-06-27T07:48:12.619Z,425
2017-06-27T07:49:11.960Z,345
2017-06-27T07:50:11.635Z,350
2017-06-27T07:51:11.627Z,330
2017-06-27T07:52:12.571Z,365
2017-06-27T07:53:12.239Z,370
2017-06-27T07:54:12.259Z,375
2017-06-27T07:55:12.540Z,325
2017-06-27T07:56:12.847Z,305
2017-06-27T07:57:12.522Z,290
2017-06-27T07:58:12.197Z,305
2017-06-27T07:59:12.244Z,275
2017-06-27T08:00:11.879Z,235
2017-06-27T08:01:12.499Z,230
2017-06-27T08:02:12.485Z,225
2017-06-27T08:03:11.860Z,225
2017-06-27T08:04:12.209Z,225
2017-06-27T08:05:11.835Z,225
2017-06-27T08:06:12.147Z,225
2017-06-27T08:07:11.847Z,225
2017-06-27T08:08:12.448Z,230
2017-06-27T08:09:12.749Z,225
2017-06-27T08:10:12.121Z,225
2017-06-27T08:11:11.800Z,230
2017-06-27T08:12:12.117Z,230
2017-06-27T08:13:12.440Z,240
2017-06-27T08:14:11.780Z,220
2017-06-27T08:15:11.767Z,220
2017-06-27T08:16:12.074Z,215
2017-06-27T08:17:12.060Z,210
2017-06-27T08:18:11.436Z,210
2017-06-27T08:19:12.365Z,205
2017-06-27T08:20:12.044Z,205
2017-06-27T08:21:11.421Z,210
2017-06-27T08:22:12.347Z,205
2017-06-27T08:23:12.028Z,205
2017-06-27T08:24:12.018Z,205
2017-06-27T08:25:12.326Z,200
2017-06-27T08:26:12.320Z,200
2017-06-27T08:27:12.635Z,200
2017-06-27T08:28:12.302Z,200
2017-06-27T08:29:12.296Z,200
2017-06-27T08:30:11.974Z,205
2017-06-27T08:31:11.963Z,205
2017-06-27T08:32:12.292Z,210
2017-06-27T08:33:12.267Z,210
2017-06-27T08:34:11.628Z,215
2017-06-27T08:35:11.670Z,215
2017-06-27T08:36:12.250Z,220
2017-06-27T08:37:12.567Z,220
2017-06-27T08:38:11.915Z,220
2017-06-27T08:39:12.266Z,220
2017-06-27T08:40:11.901Z,220
2017-06-27T08:41:12.214Z,220
2017-06-27T08:42:12.517Z,220
2017-06-27T08:43:12.198Z,220
2017-06-27T08:44:12.501Z,220
2017-06-27T08:45:11.557Z,225
2017-06-27T08:46:11.542Z,225
2017-06-27T08:47:11.538Z,220
2017-06-27T08:48:12.153Z,220
2017-06-27T08:49:11.529Z,215
2017-06-27T08:50:11.515Z,215
2017-06-27T08:51:11.824Z,210
2017-06-27T08:52:11.817Z,205
2017-06-27T08:53:11.805Z,200
2017-06-27T08:54:11.806Z,195
2017-06-27T08:55:12.111Z,195
2017-06-27T08:56:11.833Z,190
2017-06-27T08:57:12.090Z,190
2017-06-27T08:58:11.778Z,185
2017-06-27T08:59:11.149Z,185
2017-06-27T09:00:11.762Z,185
2017-06-27T09:01:11.781Z,180
2017-06-27T09:02:11.736Z,180
2017-06-27T09:03:11.143Z,180
2017-06-27T09:04:11.729Z,180
2017-06-27T09:05:12.040Z,175
2017-06-27T09:06:11.709Z,175
2017-06-27T09:07:11.388Z,175
2017-06-27T09:08:11.384Z,180
2017-06-27T09:09:12.000Z,175
2017-06-27T09:10:11.677Z,175
2017-06-27T09:11:11.363Z,180
2017-06-27T09:12:11.666Z,180
2017-06-27T09:13:11.343Z,180
2017-06-27T09:14:11.997Z,180
2017-06-27T09:15:12.271Z,180
2017-06-27T09:16:11.958Z,180
2017-06-27T09:17:11.937Z,175
2017-06-27T09:18:11.938Z,180
2017-06-27T09:19:12.244Z,180
2017-06-27T09:20:11.616Z,180
2017-06-27T09:21:11.617Z,180
2017-06-27T09:22:11.906Z,180
2017-06-27T09:23:11.589Z,185
2017-06-27T09:24:11.880Z,190
2017-06-27T09:25:11.576Z,190
2017-06-27T09:26:11.564Z,195
2017-06-27T09:27:11.560Z,195
2017-06-27T09:28:12.173Z,195
2017-06-27T09:29:11.535Z,195
2017-06-27T09:30:11.227Z,195
2017-06-27T09:31:11.528Z,195
2017-06-27T09:32:11.829Z,195
2017-06-27T09:33:10.879Z,195
2017-06-27T09:34:11.507Z,195
2017-06-27T09:35:11.183Z,200
2017-06-27T09:36:11.509Z,205
2017-06-27T09:37:11.494Z,210
2017-06-27T09:38:11.474Z,215
2017-06-27T09:39:11.468Z,215
2017-06-27T09:40:11.773Z,220
2017-06-27T09:41:11.764Z,220
2017-06-27T09:42:12.274Z,220
2017-06-27T09:43:11.445Z,225
2017-06-27T09:44:11.428Z,220
2017-06-27T09:45:11.428Z,220
2017-06-27T09:46:11.415Z,215
2017-06-27T09:47:11.725Z,215
2017-06-27T09:48:11.091Z,210
2017-06-27T09:49:11.392Z,210
2017-06-27T09:50:11.383Z,210
2017-06-27T09:51:11.382Z,210
2017-06-27T09:52:11.381Z,215
2017-06-27T09:53:12.053Z,220
2017-06-27T09:54:11.048Z,225
2017-06-27T09:55:11.352Z,230
2017-06-27T09:56:11.650Z,230
2017-06-27T09:57:11.335Z,230
2017-06-27T09:58:11.966Z,235
2017-06-27T09:59:11.327Z,235
2017-06-27T10:00:10.998Z,240
2017-06-27T10:01:11.645Z,245
2017-06-27T10:02:10.680Z,250
2017-06-27T10:03:11.292Z,260
2017-06-27T10:04:11.598Z,265
2017-06-27T10:05:11.602Z,270
2017-06-27T10:06:10.964Z,270
2017-06-27T10:07:11.575Z,270
2017-06-27T10:08:11.574Z,270
2017-06-27T10:09:11.568Z,260
2017-06-27T10:10:11.561Z,250
2017-06-27T10:11:11.236Z,245
2017-06-27T10:12:11.228Z,245
2017-06-27T10:13:11.857Z,250
2017-06-27T10:14:11.216Z,260
2017-06-27T10:15:11.529Z,270
2017-06-27T10:16:11.847Z,285
2017-06-27T10:17:11.207Z,285
2017-06-27T10:18:11.816Z,290
2017-06-27T10:19:11.185Z,295
2017-06-27T10:20:10.868Z,295
2017-06-27T10:21:11.170Z,285
2017-06-27T10:22:11.795Z,280
2017-06-27T10:23:11.484Z,275
2017-06-27T10:24:11.483Z,270
2017-06-27T10:25:11.456Z,270
2017-06-27T10:26:11.146Z,270
2017-06-27T10:27:10.824Z,270
2017-06-27T10:28:11.751Z,270
2017-06-27T10:29:11.763Z,270
2017-06-27T10:30:10.804Z,270
2017-06-27T10:31:11.113Z,270
2017-06-27T10:32:11.416Z,270
2017-06-27T10:33:11.410Z,270
2017-06-27T10:34:10.774Z,275
2017-06-27T10:35:11.090Z,270
2017-06-27T10:36:11.706Z,270
2017-06-27T10:37:10.756Z,270
2017-06-27T10:38:11.413Z,275
2017-06-27T10:39:11.060Z,275
2017-06-27T10:40:11.374Z,275
2017-06-27T10:41:11.360Z,280
2017-06-27T10:42:11.672Z,290
2017-06-27T10:43:11.358Z,305
2017-06-27T10:44:11.338Z,315
2017-06-27T10:45:11.024Z,330
2017-06-27T10:46:11.012Z,350
2017-06-27T10:47:11.011Z,375
2017-06-27T10:48:11.317Z,400
2017-06-27T10:49:10.689Z,405
2017-06-27T10:50:11.614Z,395
2017-06-27T10:51:10.986Z,390
2017-06-27T10:52:11.292Z,400
2017-06-27T10:53:11.595Z,405
2017-06-27T10:54:11.290Z,415
2017-06-27T10:55:11.287Z,420
2017-06-27T10:56:11.271Z,385
2017-06-27T10:57:10.373Z,370
2017-06-27T10:58:10.942Z,365
2017-06-27T10:59:10.953Z,360
2017-06-27T11:00:10.626Z,355
2017-06-27T11:01:10.959Z,350
2017-06-27T11:02:11.241Z,345
2017-06-27T11:03:11.240Z,330
2017-06-27T11:04:10.915Z,320
2017-06-27T11:05:11.541Z,320
2017-06-27T11:06:11.208Z,320
2017-06-27T11:07:10.586Z,325
2017-06-27T11:08:11.203Z,325
2017-06-27T11:09:11.194Z,330
2017-06-27T11:10:11.224Z,330
2017-06-27T11:11:10.882Z,320
2017-06-27T11:12:10.899Z,310
2017-06-27T11:13:10.247Z,305
2017-06-27T11:14:11.169Z,290
2017-06-27T11:15:11.172Z,285
2017-06-27T11:16:11.160Z,280
2017-06-27T11:17:11.155Z,280
2017-06-27T11:18:10.847Z,275
2017-06-27T11:19:10.859Z,275
2017-06-27T11:20:11.142Z,275
2017-06-27T11:21:11.135Z,275
2017-06-27T11:22:11.135Z,275
2017-06-27T11:23:11.447Z,275
2017-06-27T11:24:11.119Z,275
2017-06-27T11:25:11.112Z,275
2017-06-27T11:26:11.111Z,275
2017-06-27T11:27:11.104Z,275
2017-06-27T11:28:11.109Z,275
2017-06-27T11:29:10.777Z,280
2017-06-27T11:30:10.776Z,285
2017-06-27T11:31:11.083Z,295
2017-06-27T11:32:10.771Z,300
2017-06-27T11:33:10.803Z,310
2017-06-27T11:34:10.751Z,315
2017-06-27T11:35:11.068Z,320
2017-06-27T11:36:11.373Z,320
2017-06-27T11:37:10.429Z,320
2017-06-27T11:38:10.732Z,325
2017-06-27T11:39:11.064Z,335
2017-06-27T11:40:11.030Z,345
2017-06-27T11:41:11.029Z,355
2017-06-27T11:42:10.654Z,355
2017-06-27T11:43:11.012Z,360
2017-06-27T11:44:11.022Z,345
2017-06-27T11:45:11.030Z,335
2017-06-27T11:46:10.380Z,330
2017-06-27T11:47:10.070Z,330
2017-06-27T11:48:10.686Z,305
2017-06-27T11:49:10.998Z,285
2017-06-27T11:50:10.672Z,260
2017-06-27T11:51:10.981Z,245
2017-06-27T11:52:10.977Z,235
2017-06-27T11:53:10.971Z,230
2017-06-27T11:54:10.335Z,220
2017-06-27T11:55:10.655Z,210
2017-06-27T11:56:10.958Z,205
2017-06-27T11:57:10.629Z,200
2017-06-27T11:58:10.329Z,200
2017-06-27T11:59:10.635Z,195
2017-06-27T12:00:10.003Z,200
2017-06-27T12:01:09.985Z,205
2017-06-27T12:02:10.616Z,210
2017-06-27T12:03:10.933Z,215
2017-06-27T12:04:10.599Z,225
2017-06-27T12:05:10.900Z,235
2017-06-27T12:06:10.272Z,240
2017-06-27T12:07:10.894Z,250
2017-06-27T12:08:11.222Z,255
2017-06-27T12:09:10.260Z,250
2017-06-27T12:10:10.876Z,250
2017-06-27T12:11:10.872Z,245
2017-06-27T12:12:10.291Z,240
2017-06-27T12:13:10.549Z,240
2017-06-27T12:14:10.231Z,235
2017-06-27T12:15:10.542Z,235
2017-06-27T12:16:10.845Z,230
2017-06-27T12:17:10.221Z,230
2017-06-27T12:18:10.522Z,230
2017-06-27T12:19:10.204Z,225
2017-06-27T12:20:11.135Z,225
2017-06-27T12:21:10.204Z,225
2017-06-27T12:22:10.509Z,225
2017-06-27T12:23:10.807Z,225
2017-06-27T12:24:11.167Z,225
2017-06-27T12:25:11.115Z,230
2017-06-27T12:26:10.479Z,230
2017-06-27T12:27:10.791Z,240
2017-06-27T12:28:11.096Z,235
2017-06-27T12:29:10.146Z,230
2017-06-27T12:30:10.452Z,225
2017-06-27T12:31:10.139Z,220
2017-06-27T12:32:10.757Z,220
2017-06-27T12:33:10.753Z,215
2017-06-27T12:34:10.437Z,220
2017-06-27T12:35:10.120Z,225
2017-06-27T12:36:10.106Z,230
2017-06-27T12:37:11.041Z,245
2017-06-27T12:38:10.414Z,255
2017-06-27T12:39:10.407Z,265
2017-06-27T12:40:10.721Z,280
2017-06-27T12:41:10.400Z,300
2017-06-27T12:42:10.082Z,320
2017-06-27T12:43:10.387Z,355
2017-06-27T12:44:10.999Z,375
2017-06-27T12:45:10.386Z,420
2017-06-27T12:46:10.056Z,430
2017-06-27T12:47:10.988Z,465
2017-06-27T12:48:10.055Z,500
2017-06-27T12:49:10.674Z,585
2017-06-27T12:50:10.351Z,635
2017-06-27T12:51:10.653Z,640
2017-06-27T12:52:10.848Z,635
2017-06-27T12:53:10.337Z,675
2017-06-27T12:54:10.748Z,980
2017-06-27T12:55:10.637Z,1060
2017-06-27T12:56:10.954Z,750
2017-06-27T12:57:10.946Z,620
2017-06-27T12:58:10.620Z,630
2017-06-27T12:59:10.624Z,595
2017-06-27T13:00:10.348Z,560
2017-06-27T13:01:10.647Z,505
2017-06-27T13:02:10.931Z,585
2017-06-27T13:03:10.917Z,620
2017-06-27T13:04:09.977Z,540
2017-06-27T13:05:09.983Z,475
2017-06-27T13:06:10.277Z,435
2017-06-27T13:07:10.603Z,405
2017-06-27T13:08:10.837Z,385
2017-06-27T13:09:10.580Z,385
2017-06-27T13:10:09.948Z,395
2017-06-27T13:11:10.573Z,405
2017-06-27T13:12:10.266Z,430
2017-06-27T13:13:10.570Z,430
2017-06-27T13:14:10.880Z,415
2017-06-27T13:15:10.873Z,405
2017-06-27T13:16:10.255Z,390
2017-06-27T13:17:10.565Z,380
2017-06-27T13:18:10.551Z,380
2017-06-27T13:19:10.546Z,380
2017-06-27T13:20:10.235Z,375
2017-06-27T13:21:10.547Z,385
2017-06-27T13:22:10.856Z,385
2017-06-27T13:23:10.848Z,380
2017-06-27T13:24:09.954Z,370
2017-06-27T13:25:10.531Z,355
2017-06-27T13:26:10.212Z,350
2017-06-27T13:27:10.827Z,345
2017-06-27T13:28:10.824Z,340
2017-06-27T13:29:10.193Z,330
2017-06-27T13:30:10.193Z,325
2017-06-27T13:31:10.817Z,310
2017-06-27T13:32:10.184Z,305
2017-06-27T13:33:10.545Z,300
2017-06-27T13:34:10.494Z,300
2017-06-27T13:35:10.191Z,295
2017-06-27T13:36:10.171Z,280
2017-06-27T13:37:10.484Z,275
2017-06-27T13:38:10.168Z,265
2017-06-27T13:39:10.780Z,260
2017-06-27T13:40:10.152Z,250
2017-06-27T13:41:10.532Z,240
2017-06-27T13:42:10.996Z,230
2017-06-27T13:43:09.838Z,220
2017-06-27T13:44:10.451Z,220
2017-06-27T13:45:10.761Z,215
2017-06-27T13:46:10.443Z,205
2017-06-27T13:47:09.810Z,200
2017-06-27T13:48:10.434Z,195
2017-06-27T13:49:10.117Z,185
2017-06-27T13:50:10.423Z,180
2017-06-27T13:51:10.419Z,175
2017-06-27T13:52:10.413Z,170
2017-06-27T13:53:10.415Z,165
2017-06-27T13:54:10.098Z,160
2017-06-27T13:55:10.402Z,155
2017-06-27T13:56:10.082Z,150
2017-06-27T13:57:10.408Z,150
2017-06-27T13:58:10.704Z,145
2017-06-27T13:59:10.382Z,140
2017-06-27T14:00:10.070Z,135
2017-06-27T14:01:10.070Z,120
2017-06-27T14:02:10.681Z,105
2017-06-27T14:03:10.362Z,100
2017-06-27T14:04:10.363Z,100